Terminal Aerodrome Forecast
Issued by NWS

Current Version | Previous Version | Text Only | Print | Product List | Glossary On
Versions: 1 2 3 4 5 6 7 8 9 10 11 12 13 14 15 16 17 18 19
401
FTUS43 KFGF 231934 AAE
TAFDVL
TAF AMD
KDVL 231934Z 2320/2418 16011KT P6SM BKN035
     FM232030 28011KT P6SM BKN035
     FM240300 27008KT P6SM SKC
     FM240600 28013G21KT P6SM FEW250=

USA.gov is the U.S. government's official web portal to all federal, state and local government web resources and services.